sensor_id;sensor_type;location;lat;lon;timestamp;temperature;humidity
13817;DHT22;6979;52.116;5.286;2022-09-27T00:00:29;14.30;99.90
13817;DHT22;6979;52.116;5.286;2022-09-27T00:02:57;14.20;99.90
13817;DHT22;6979;52.116;5.286;2022-09-27T00:05:24;14.20;99.90
13817;DHT22;6979;52.116;5.286;2022-09-27T00:07:51;14.20;99.90
13817;DHT22;6979;52.116;5.286;2022-09-27T00:10:18;14.20;99.90
13817;DHT22;6979;52.116;5.286;2022-09-27T00:12:45;14.20;99.90
13817;DHT22;6979;52.116;5.286;2022-09-27T00:15:13;14.20;99.90
13817;DHT22;6979;52.116;5.286;2022-09-27T00:17:40;14.20;99.90
13817;DHT22;6979;52.116;5.286;2022-09-27T00:20:08;14.20;99.90
13817;DHT22;6979;52.116;5.286;2022-09-27T00:22:36;14.20;99.90
13817;DHT22;6979;52.116;5.286;2022-09-27T00:25:03;14.20;99.90
13817;DHT22;6979;52.116;5.286;2022-09-27T00:27:32;14.20;99.90
13817;DHT22;6979;52.116;5.286;2022-09-27T00:29:59;14.20;99.90
13817;DHT22;6979;52.116;5.286;2022-09-27T00:32:26;14.20;99.90
13817;DHT22;6979;52.116;5.286;2022-09-27T00:34:53;14.20;99.90
13817;DHT22;6979;52.116;5.286;2022-09-27T00:37:21;14.20;99.90
13817;DHT22;6979;52.116;5.286;2022-09-27T00:39:49;14.20;99.90
13817;DHT22;6979;52.116;5.286;2022-09-27T00:42:16;14.20;99.90
13817;DHT22;6979;52.116;5.286;2022-09-27T00:44:59;14.20;99.90
13817;DHT22;6979;52.116;5.286;2022-09-27T00:47:31;14.20;99.90
13817;DHT22;6979;52.116;5.286;2022-09-27T00:50:04;14.10;99.90
13817;DHT22;6979;52.116;5.286;2022-09-27T00:52:39;14.10;99.90
13817;DHT22;6979;52.116;5.286;2022-09-27T00:55:13;14.10;99.90
13817;DHT22;6979;52.116;5.286;2022-09-27T00:57:42;14.10;99.90
13817;DHT22;6979;52.116;5.286;2022-09-27T01:00:12;14.10;99.90
13817;DHT22;6979;52.116;5.286;2022-09-27T01:02:41;14.00;99.90
13817;DHT22;6979;52.116;5.286;2022-09-27T01:05:10;14.00;99.90
13817;DHT22;6979;52.116;5.286;2022-09-27T01:07:39;14.00;99.90
13817;DHT22;6979;52.116;5.286;2022-09-27T01:10:07;14.00;99.90
13817;DHT22;6979;52.116;5.286;2022-09-27T01:12:41;13.90;99.90
13817;DHT22;6979;52.116;5.286;2022-09-27T01:15:18;13.90;99.90
13817;DHT22;6979;52.116;5.286;2022-09-27T01:17:52;13.90;99.90
13817;DHT22;6979;52.116;5.286;2022-09-27T01:20:46;13.80;99.90
13817;DHT22;6979;52.116;5.286;2022-09-27T01:26:24;13.80;99.90
13817;DHT22;6979;52.116;5.286;2022-09-27T01:28:57;13.80;99.90
13817;DHT22;6979;52.116;5.286;2022-09-27T01:31:32;13.70;99.90
13817;DHT22;6979;52.116;5.286;2022-09-27T01:34:06;13.70;99.90
13817;DHT22;6979;52.116;5.286;2022-09-27T01:36:41;13.70;99.90
13817;DHT22;6979;52.116;5.286;2022-09-27T01:39:19;13.70;99.90
13817;DHT22;6979;52.116;5.286;2022-09-27T01:42:12;13.70;99.90
13817;DHT22;6979;52.116;5.286;2022-09-27T01:44:48;13.70;99.90
13817;DHT22;6979;52.116;5.286;2022-09-27T01:47:22;13.70;99.90
13817;DHT22;6979;52.116;5.286;2022-09-27T01:50:00;13.70;99.90
13817;DHT22;6979;52.116;5.286;2022-09-27T01:52:35;13.70;99.90
13817;DHT22;6979;52.116;5.286;2022-09-27T01:55:04;13.70;99.90
13817;DHT22;6979;52.116;5.286;2022-09-27T01:57:57;13.70;99.90
13817;DHT22;6979;52.116;5.286;2022-09-27T02:00:25;13.70;99.90
13817;DHT22;6979;52.116;5.286;2022-09-27T02:02:58;13.70;99.90
13817;DHT22;6979;52.116;5.286;2022-09-27T02:05:31;13.70;99.90
13817;DHT22;6979;52.116;5.286;2022-09-27T02:08:13;13.70;99.90
13817;DHT22;6979;52.116;5.286;2022-09-27T02:10:47;13.70;99.90
13817;DHT22;6979;52.116;5.286;2022-09-27T02:13:21;13.70;99.90
13817;DHT22;6979;52.116;5.286;2022-09-27T02:16:05;13.70;99.90
13817;DHT22;6979;52.116;5.286;2022-09-27T02:18:46;13.70;99.90
13817;DHT22;6979;52.116;5.286;2022-09-27T02:21:17;13.70;99.90
13817;DHT22;6979;52.116;5.286;2022-09-27T02:23:49;13.70;99.90
13817;DHT22;6979;52.116;5.286;2022-09-27T02:26:18;13.70;99.90
13817;DHT22;6979;52.116;5.286;2022-09-27T02:28:51;13.70;99.90
13817;DHT22;6979;52.116;5.286;2022-09-27T02:31:28;13.70;99.90
13817;DHT22;6979;52.116;5.286;2022-09-27T02:34:00;13.70;99.90
13817;DHT22;6979;52.116;5.286;2022-09-27T02:36:29;13.70;99.90
13817;DHT22;6979;52.116;5.286;2022-09-27T02:38:56;13.60;99.90
13817;DHT22;6979;52.116;5.286;2022-09-27T02:41:25;13.60;99.90
13817;DHT22;6979;52.116;5.286;2022-09-27T02:43:54;13.60;99.90
13817;DHT22;6979;52.116;5.286;2022-09-27T02:46:46;13.50;99.90
13817;DHT22;6979;52.116;5.286;2022-09-27T02:52:31;13.40;99.90
13817;DHT22;6979;52.116;5.286;2022-09-27T02:55:10;13.40;99.90
13817;DHT22;6979;52.116;5.286;2022-09-27T02:57:59;13.40;99.90
13817;DHT22;6979;52.116;5.286;2022-09-27T03:00:46;13.30;99.90
13817;DHT22;6979;52.116;5.286;2022-09-27T03:03:47;13.30;99.90
13817;DHT22;6979;52.116;5.286;2022-09-27T03:06:19;13.30;99.90
13817;DHT22;6979;52.116;5.286;2022-09-27T03:08:46;13.20;99.90
13817;DHT22;6979;52.116;5.286;2022-09-27T03:11:14;13.30;99.90
13817;DHT22;6979;52.116;5.286;2022-09-27T03:13:41;13.20;99.90
13817;DHT22;6979;52.116;5.286;2022-09-27T03:16:09;13.20;99.90
13817;DHT22;6979;52.116;5.286;2022-09-27T03:18:49;13.20;99.90
13817;DHT22;6979;52.116;5.286;2022-09-27T03:21:43;13.20;99.90
13817;DHT22;6979;52.116;5.286;2022-09-27T03:24:10;13.20;99.90
13817;DHT22;6979;52.116;5.286;2022-09-27T03:26:37;13.10;99.90
13817;DHT22;6979;52.116;5.286;2022-09-27T03:29:04;13.10;99.90
13817;DHT22;6979;52.116;5.286;2022-09-27T03:31:31;13.10;99.90
13817;DHT22;6979;52.116;5.286;2022-09-27T03:34:24;13.10;99.90
13817;DHT22;6979;52.116;5.286;2022-09-27T03:36:52;13.10;99.90
13817;DHT22;6979;52.116;5.286;2022-09-27T03:39:19;13.10;99.90
13817;DHT22;6979;52.116;5.286;2022-09-27T03:41:46;13.10;99.90
13817;DHT22;6979;52.116;5.286;2022-09-27T03:44:13;13.10;99.90
13817;DHT22;6979;52.116;5.286;2022-09-27T03:46:40;13.10;99.90
13817;DHT22;6979;52.116;5.286;2022-09-27T03:49:07;13.10;99.90
13817;DHT22;6979;52.116;5.286;2022-09-27T03:51:34;13.10;99.90
13817;DHT22;6979;52.116;5.286;2022-09-27T03:54:02;13.20;99.90
13817;DHT22;6979;52.116;5.286;2022-09-27T03:56:30;13.10;99.90
13817;DHT22;6979;52.116;5.286;2022-09-27T03:58:57;13.20;99.90
13817;DHT22;6979;52.116;5.286;2022-09-27T04:01:25;13.20;99.90
13817;DHT22;6979;52.116;5.286;2022-09-27T04:03:59;13.20;99.90
13817;DHT22;6979;52.116;5.286;2022-09-27T04:06:31;13.20;99.90
13817;DHT22;6979;52.116;5.286;2022-09-27T04:08:59;13.20;99.90
13817;DHT22;6979;52.116;5.286;2022-09-27T04:11:42;13.20;99.90
13817;DHT22;6979;52.116;5.286;2022-09-27T04:14:09;13.20;99.90
13817;DHT22;6979;52.116;5.286;2022-09-27T04:16:51;13.20;99.90
13817;DHT22;6979;52.116;5.286;2022-09-27T04:19:31;13.20;99.90
13817;DHT22;6979;52.116;5.286;2022-09-27T04:22:06;13.20;99.90
13817;DHT22;6979;52.116;5.286;2022-09-27T04:24:33;13.20;99.90
13817;DHT22;6979;52.116;5.286;2022-09-27T04:27:21;13.20;99.90
13817;DHT22;6979;52.116;5.286;2022-09-27T04:29:49;13.30;99.90
13817;DHT22;6979;52.116;5.286;2022-09-27T04:32:40;13.30;99.90
13817;DHT22;6979;52.116;5.286;2022-09-27T04:35:32;13.20;99.90
13817;DHT22;6979;52.116;5.286;2022-09-27T04:38:17;13.20;99.90
13817;DHT22;6979;52.116;5.286;2022-09-27T04:40:45;13.20;99.90
13817;DHT22;6979;52.116;5.286;2022-09-27T04:43:15;13.20;99.90
13817;DHT22;6979;52.116;5.286;2022-09-27T04:45:42;13.20;99.90
13817;DHT22;6979;52.116;5.286;2022-09-27T04:48:09;13.20;99.90
13817;DHT22;6979;52.116;5.286;2022-09-27T04:50:37;13.20;99.90
13817;DHT22;6979;52.116;5.286;2022-09-27T04:53:06;13.10;99.90
13817;DHT22;6979;52.116;5.286;2022-09-27T04:55:33;13.10;99.90
13817;DHT22;6979;52.116;5.286;2022-09-27T04:58:00;13.10;99.90
13817;DHT22;6979;52.116;5.286;2022-09-27T05:00:28;13.10;99.90
13817;DHT22;6979;52.116;5.286;2022-09-27T05:03:13;13.10;99.90
13817;DHT22;6979;52.116;5.286;2022-09-27T05:05:56;13.10;99.90
13817;DHT22;6979;52.116;5.286;2022-09-27T05:08:24;13.00;99.90
13817;DHT22;6979;52.116;5.286;2022-09-27T05:11:09;13.00;99.90
13817;DHT22;6979;52.116;5.286;2022-09-27T05:13:38;13.00;99.90
13817;DHT22;6979;52.116;5.286;2022-09-27T05:16:07;13.00;99.90
13817;DHT22;6979;52.116;5.286;2022-09-27T05:19:00;12.90;99.90
13817;DHT22;6979;52.116;5.286;2022-09-27T05:21:45;12.90;99.90
13817;DHT22;6979;52.116;5.286;2022-09-27T05:24:13;12.90;99.90
13817;DHT22;6979;52.116;5.286;2022-09-27T05:26:40;12.90;99.90
13817;DHT22;6979;52.116;5.286;2022-09-27T05:29:07;12.90;99.90
13817;DHT22;6979;52.116;5.286;2022-09-27T05:31:36;12.90;99.90
13817;DHT22;6979;52.116;5.286;2022-09-27T05:34:03;12.90;99.90
13817;DHT22;6979;52.116;5.286;2022-09-27T05:36:41;12.90;99.90
13817;DHT22;6979;52.116;5.286;2022-09-27T05:39:08;12.90;99.90
13817;DHT22;6979;52.116;5.286;2022-09-27T05:41:35;12.90;99.90
13817;DHT22;6979;52.116;5.286;2022-09-27T05:44:02;12.90;99.90
13817;DHT22;6979;52.116;5.286;2022-09-27T05:46:28;12.90;99.90
13817;DHT22;6979;52.116;5.286;2022-09-27T05:48:57;12.90;99.90
13817;DHT22;6979;52.116;5.286;2022-09-27T05:51:24;12.90;99.90
13817;DHT22;6979;52.116;5.286;2022-09-27T05:53:51;12.90;99.90
13817;DHT22;6979;52.116;5.286;2022-09-27T05:56:26;12.90;99.90
13817;DHT22;6979;52.116;5.286;2022-09-27T05:59:07;12.90;99.90
13817;DHT22;6979;52.116;5.286;2022-09-27T06:01:54;12.90;99.90
13817;DHT22;6979;52.116;5.286;2022-09-27T06:04:52;12.90;99.90
13817;DHT22;6979;52.116;5.286;2022-09-27T06:07:38;12.90;99.90
13817;DHT22;6979;52.116;5.286;2022-09-27T06:10:08;12.90;99.90
13817;DHT22;6979;52.116;5.286;2022-09-27T06:16:29;12.90;99.90
13817;DHT22;6979;52.116;5.286;2022-09-27T06:19:01;13.00;99.90
13817;DHT22;6979;52.116;5.286;2022-09-27T06:21:50;13.00;99.90
13817;DHT22;6979;52.116;5.286;2022-09-27T06:24:17;13.00;99.90
13817;DHT22;6979;52.116;5.286;2022-09-27T06:26:46;13.00;99.90
13817;DHT22;6979;52.116;5.286;2022-09-27T06:29:22;13.10;99.90
13817;DHT22;6979;52.116;5.286;2022-09-27T06:31:54;13.10;99.90
13817;DHT22;6979;52.116;5.286;2022-09-27T06:34:45;13.10;99.90
13817;DHT22;6979;52.116;5.286;2022-09-27T06:37:14;13.10;99.90
13817;DHT22;6979;52.116;5.286;2022-09-27T06:39:41;13.10;99.90
13817;DHT22;6979;52.116;5.286;2022-09-27T06:42:31;13.10;99.90
13817;DHT22;6979;52.116;5.286;2022-09-27T06:45:08;13.10;99.90
13817;DHT22;6979;52.116;5.286;2022-09-27T06:47:53;13.10;99.90
13817;DHT22;6979;52.116;5.286;2022-09-27T06:50:59;13.10;99.90
13817;DHT22;6979;52.116;5.286;2022-09-27T06:53:28;13.20;99.90
13817;DHT22;6979;52.116;5.286;2022-09-27T06:56:00;13.20;99.90
13817;DHT22;6979;52.116;5.286;2022-09-27T06:58:34;13.30;99.90
13817;DHT22;6979;52.116;5.286;2022-09-27T07:01:48;13.30;99.90
13817;DHT22;6979;52.116;5.286;2022-09-27T07:04:40;13.30;99.90
13817;DHT22;6979;52.116;5.286;2022-09-27T07:07:38;13.40;99.90
13817;DHT22;6979;52.116;5.286;2022-09-27T07:10:08;13.40;99.90
13817;DHT22;6979;52.116;5.286;2022-09-27T07:12:35;13.40;99.90
13817;DHT22;6979;52.116;5.286;2022-09-27T07:15:02;13.50;99.90
13817;DHT22;6979;52.116;5.286;2022-09-27T07:17:29;13.50;99.90
13817;DHT22;6979;52.116;5.286;2022-09-27T07:19:59;13.50;99.90
13817;DHT22;6979;52.116;5.286;2022-09-27T07:22:26;13.60;99.90
13817;DHT22;6979;52.116;5.286;2022-09-27T07:24:58;13.60;99.90
13817;DHT22;6979;52.116;5.286;2022-09-27T07:27:26;13.70;99.90
13817;DHT22;6979;52.116;5.286;2022-09-27T07:29:54;13.70;99.90
13817;DHT22;6979;52.116;5.286;2022-09-27T07:35:07;13.70;99.90
13817;DHT22;6979;52.116;5.286;2022-09-27T07:37:35;13.70;99.90
13817;DHT22;6979;52.116;5.286;2022-09-27T07:40:05;13.80;99.90
13817;DHT22;6979;52.116;5.286;2022-09-27T07:42:35;13.70;99.90
13817;DHT22;6979;52.116;5.286;2022-09-27T07:48:08;13.80;99.90
13817;DHT22;6979;52.116;5.286;2022-09-27T07:50:55;13.90;99.90
13817;DHT22;6979;52.116;5.286;2022-09-27T07:53:40;13.90;99.90
13817;DHT22;6979;52.116;5.286;2022-09-27T07:56:29;13.90;99.90
13817;DHT22;6979;52.116;5.286;2022-09-27T07:58:59;13.90;99.90
13817;DHT22;6979;52.116;5.286;2022-09-27T08:01:26;13.90;99.90
13817;DHT22;6979;52.116;5.286;2022-09-27T08:03:53;14.00;99.90
13817;DHT22;6979;52.116;5.286;2022-09-27T08:06:23;14.00;99.90
13817;DHT22;6979;52.116;5.286;2022-09-27T08:08:56;14.00;99.90
13817;DHT22;6979;52.116;5.286;2022-09-27T08:11:24;14.00;99.90
13817;DHT22;6979;52.116;5.286;2022-09-27T08:13:54;14.10;99.90
13817;DHT22;6979;52.116;5.286;2022-09-27T08:16:26;14.10;99.90
13817;DHT22;6979;52.116;5.286;2022-09-27T08:19:11;14.10;99.90
13817;DHT22;6979;52.116;5.286;2022-09-27T08:22:01;14.20;99.90
13817;DHT22;6979;52.116;5.286;2022-09-27T08:24:48;14.20;99.90
13817;DHT22;6979;52.116;5.286;2022-09-27T08:27:24;14.20;99.90
13817;DHT22;6979;52.116;5.286;2022-09-27T08:29:54;14.20;99.90
13817;DHT22;6979;52.116;5.286;2022-09-27T08:32:24;14.20;99.90
13817;DHT22;6979;52.116;5.286;2022-09-27T08:34:55;14.30;99.90
13817;DHT22;6979;52.116;5.286;2022-09-27T08:37:28;14.30;99.90
13817;DHT22;6979;52.116;5.286;2022-09-27T08:40:33;14.30;99.90
13817;DHT22;6979;52.116;5.286;2022-09-27T08:43:08;14.30;99.90
13817;DHT22;6979;52.116;5.286;2022-09-27T08:45:46;14.30;99.90
13817;DHT22;6979;52.116;5.286;2022-09-27T08:48:20;14.30;99.90
13817;DHT22;6979;52.116;5.286;2022-09-27T08:50:54;14.20;99.90
13817;DHT22;6979;52.116;5.286;2022-09-27T08:53:25;14.20;99.90
13817;DHT22;6979;52.116;5.286;2022-09-27T08:55:57;14.10;99.90
13817;DHT22;6979;52.116;5.286;2022-09-27T08:58:38;14.10;99.90
13817;DHT22;6979;52.116;5.286;2022-09-27T09:01:15;14.00;99.90
13817;DHT22;6979;52.116;5.286;2022-09-27T09:03:59;14.00;99.90
13817;DHT22;6979;52.116;5.286;2022-09-27T09:06:37;14.00;99.90
13817;DHT22;6979;52.116;5.286;2022-09-27T09:09:12;14.00;99.90
13817;DHT22;6979;52.116;5.286;2022-09-27T09:12:00;14.00;99.90
13817;DHT22;6979;52.116;5.286;2022-09-27T09:14:56;14.00;99.90
13817;DHT22;6979;52.116;5.286;2022-09-27T09:17:38;13.90;99.90
13817;DHT22;6979;52.116;5.286;2022-09-27T09:20:53;13.90;99.90
13817;DHT22;6979;52.116;5.286;2022-09-27T09:23:57;13.90;99.90
13817;DHT22;6979;52.116;5.286;2022-09-27T09:26:32;13.90;99.90
13817;DHT22;6979;52.116;5.286;2022-09-27T09:29:10;13.80;99.90
13817;DHT22;6979;52.116;5.286;2022-09-27T09:31:54;13.80;99.90
13817;DHT22;6979;52.116;5.286;2022-09-27T09:34:29;13.80;99.90
13817;DHT22;6979;52.116;5.286;2022-09-27T09:37:01;13.80;99.90
13817;DHT22;6979;52.116;5.286;2022-09-27T09:39:34;13.80;99.90
13817;DHT22;6979;52.116;5.286;2022-09-27T09:42:08;13.80;99.90
13817;DHT22;6979;52.116;5.286;2022-09-27T09:44:46;13.80;99.90
13817;DHT22;6979;52.116;5.286;2022-09-27T09:47:23;13.80;99.90
13817;DHT22;6979;52.116;5.286;2022-09-27T09:49:55;13.90;99.90
13817;DHT22;6979;52.116;5.286;2022-09-27T09:52:31;13.80;99.90
13817;DHT22;6979;52.116;5.286;2022-09-27T09:55:04;13.90;99.90
13817;DHT22;6979;52.116;5.286;2022-09-27T09:57:39;14.00;99.90
13817;DHT22;6979;52.116;5.286;2022-09-27T10:00:17;14.00;99.90
13817;DHT22;6979;52.116;5.286;2022-09-27T10:02:53;14.00;99.90
13817;DHT22;6979;52.116;5.286;2022-09-27T10:05:22;14.00;99.90
13817;DHT22;6979;52.116;5.286;2022-09-27T10:08:04;14.10;99.90
13817;DHT22;6979;52.116;5.286;2022-09-27T10:10:33;14.10;99.90
13817;DHT22;6979;52.116;5.286;2022-09-27T10:29:35;14.20;99.90
13817;DHT22;6979;52.116;5.286;2022-09-27T10:32:17;14.20;99.90
13817;DHT22;6979;52.116;5.286;2022-09-27T10:34:47;14.20;99.90
13817;DHT22;6979;52.116;5.286;2022-09-27T10:37:25;14.20;99.90
13817;DHT22;6979;52.116;5.286;2022-09-27T10:40:25;14.30;99.90
13817;DHT22;6979;52.116;5.286;2022-09-27T10:42:53;14.30;99.90
13817;DHT22;6979;52.116;5.286;2022-09-27T10:45:31;14.40;99.90
13817;DHT22;6979;52.116;5.286;2022-09-27T10:48:08;14.40;99.90
13817;DHT22;6979;52.116;5.286;2022-09-27T10:50:55;14.50;99.90
13817;DHT22;6979;52.116;5.286;2022-09-27T10:53:31;14.50;99.90
13817;DHT22;6979;52.116;5.286;2022-09-27T10:56:04;14.50;99.90
13817;DHT22;6979;52.116;5.286;2022-09-27T10:58:34;14.50;99.90
13817;DHT22;6979;52.116;5.286;2022-09-27T11:01:06;14.60;99.90
13817;DHT22;6979;52.116;5.286;2022-09-27T11:03:55;14.60;99.90
13817;DHT22;6979;52.116;5.286;2022-09-27T11:06:29;14.60;99.90
13817;DHT22;6979;52.116;5.286;2022-09-27T11:09:15;14.50;99.90
13817;DHT22;6979;52.116;5.286;2022-09-27T11:11:43;14.50;99.90
13817;DHT22;6979;52.116;5.286;2022-09-27T11:14:18;14.50;99.90
13817;DHT22;6979;52.116;5.286;2022-09-27T11:17:01;14.40;99.90
13817;DHT22;6979;52.116;5.286;2022-09-27T11:19:54;14.40;99.90
13817;DHT22;6979;52.116;5.286;2022-09-27T11:22:33;14.40;99.90
13817;DHT22;6979;52.116;5.286;2022-09-27T11:25:16;14.40;99.90
13817;DHT22;6979;52.116;5.286;2022-09-27T11:27:56;14.40;99.90
13817;DHT22;6979;52.116;5.286;2022-09-27T11:30:32;14.40;99.90
13817;DHT22;6979;52.116;5.286;2022-09-27T11:33:49;14.40;99.90
13817;DHT22;6979;52.116;5.286;2022-09-27T11:36:28;14.40;99.90
13817;DHT22;6979;52.116;5.286;2022-09-27T11:39:02;14.40;99.90
13817;DHT22;6979;52.116;5.286;2022-09-27T11:44:53;14.40;99.90
13817;DHT22;6979;52.116;5.286;2022-09-27T11:47:38;14.40;99.90
13817;DHT22;6979;52.116;5.286;2022-09-27T11:50:37;14.40;99.90
13817;DHT22;6979;52.116;5.286;2022-09-27T11:53:19;14.40;99.90
13817;DHT22;6979;52.116;5.286;2022-09-27T12:00:06;14.40;99.90
13817;DHT22;6979;52.116;5.286;2022-09-27T12:05:59;14.40;99.90
13817;DHT22;6979;52.116;5.286;2022-09-27T12:08:48;14.30;99.90
13817;DHT22;6979;52.116;5.286;2022-09-27T12:11:20;14.30;99.90
13817;DHT22;6979;52.116;5.286;2022-09-27T12:13:56;14.20;99.90
13817;DHT22;6979;52.116;5.286;2022-09-27T12:16:27;14.20;99.90
13817;DHT22;6979;52.116;5.286;2022-09-27T12:18:57;14.20;99.90
13817;DHT22;6979;52.116;5.286;2022-09-27T12:21:47;14.20;99.90
13817;DHT22;6979;52.116;5.286;2022-09-27T12:24:19;14.10;99.90
13817;DHT22;6979;52.116;5.286;2022-09-27T12:27:07;14.10;99.90
13817;DHT22;6979;52.116;5.286;2022-09-27T12:29:37;14.00;99.90
13817;DHT22;6979;52.116;5.286;2022-09-27T12:32:12;13.90;99.90
13817;DHT22;6979;52.116;5.286;2022-09-27T12:34:46;13.90;99.90
13817;DHT22;6979;52.116;5.286;2022-09-27T12:37:19;13.80;99.90
13817;DHT22;6979;52.116;5.286;2022-09-27T12:39:51;13.80;99.90
13817;DHT22;6979;52.116;5.286;2022-09-27T12:42:34;13.70;99.90
13817;DHT22;6979;52.116;5.286;2022-09-27T12:45:11;13.70;99.90
13817;DHT22;6979;52.116;5.286;2022-09-27T12:48:00;13.70;99.90
13817;DHT22;6979;52.116;5.286;2022-09-27T12:50:35;13.70;99.90
13817;DHT22;6979;52.116;5.286;2022-09-27T12:53:10;13.60;99.90
13817;DHT22;6979;52.116;5.286;2022-09-27T12:59:04;13.60;99.90
13817;DHT22;6979;52.116;5.286;2022-09-27T13:01:58;13.60;99.90
13817;DHT22;6979;52.116;5.286;2022-09-27T13:04:44;13.60;99.90
13817;DHT22;6979;52.116;5.286;2022-09-27T13:07:29;13.60;99.90
13817;DHT22;6979;52.116;5.286;2022-09-27T13:10:25;13.60;99.90
13817;DHT22;6979;52.116;5.286;2022-09-27T13:13:17;13.60;99.90
13817;DHT22;6979;52.116;5.286;2022-09-27T13:15:46;13.70;99.90
13817;DHT22;6979;52.116;5.286;2022-09-27T13:18:30;13.70;99.90
13817;DHT22;6979;52.116;5.286;2022-09-27T13:21:00;13.80;99.90
13817;DHT22;6979;52.116;5.286;2022-09-27T13:23:51;13.80;99.90
13817;DHT22;6979;52.116;5.286;2022-09-27T13:29:21;14.00;99.90
13817;DHT22;6979;52.116;5.286;2022-09-27T13:32:23;14.00;99.90
13817;DHT22;6979;52.116;5.286;2022-09-27T13:35:17;14.10;99.90
13817;DHT22;6979;52.116;5.286;2022-09-27T13:37:52;14.20;99.90
13817;DHT22;6979;52.116;5.286;2022-09-27T13:40:44;14.30;99.90
13817;DHT22;6979;52.116;5.286;2022-09-27T13:43:36;14.40;99.90
13817;DHT22;6979;52.116;5.286;2022-09-27T13:46:18;14.50;99.90
13817;DHT22;6979;52.116;5.286;2022-09-27T13:48:51;14.80;99.90
13817;DHT22;6979;52.116;5.286;2022-09-27T13:51:34;15.00;99.90
13817;DHT22;6979;52.116;5.286;2022-09-27T13:54:04;15.40;99.90
13817;DHT22;6979;52.116;5.286;2022-09-27T13:56:53;15.70;99.90
13817;DHT22;6979;52.116;5.286;2022-09-27T13:59:30;16.10;99.90
13817;DHT22;6979;52.116;5.286;2022-09-27T14:02:30;16.40;99.90
13817;DHT22;6979;52.116;5.286;2022-09-27T14:05:06;16.70;99.90
13817;DHT22;6979;52.116;5.286;2022-09-27T14:07:40;16.90;99.90
13817;DHT22;6979;52.116;5.286;2022-09-27T14:10:12;17.10;99.90
13817;DHT22;6979;52.116;5.286;2022-09-27T14:12:43;17.20;99.90
13817;DHT22;6979;52.116;5.286;2022-09-27T14:15:18;17.30;99.90
13817;DHT22;6979;52.116;5.286;2022-09-27T14:17:47;17.30;99.90
13817;DHT22;6979;52.116;5.286;2022-09-27T14:20:30;17.20;99.90
13817;DHT22;6979;52.116;5.286;2022-09-27T14:23:03;17.20;99.90
13817;DHT22;6979;52.116;5.286;2022-09-27T14:25:38;17.10;99.90
13817;DHT22;6979;52.116;5.286;2022-09-27T14:28:19;17.00;99.90
13817;DHT22;6979;52.116;5.286;2022-09-27T14:31:13;16.90;99.90
13817;DHT22;6979;52.116;5.286;2022-09-27T14:34:11;16.80;99.90
13817;DHT22;6979;52.116;5.286;2022-09-27T14:36:46;16.70;99.90
13817;DHT22;6979;52.116;5.286;2022-09-27T14:39:38;16.50;99.90
13817;DHT22;6979;52.116;5.286;2022-09-27T14:42:20;16.40;99.90
13817;DHT22;6979;52.116;5.286;2022-09-27T14:44:56;16.30;99.90
13817;DHT22;6979;52.116;5.286;2022-09-27T14:47:27;16.20;99.90
13817;DHT22;6979;52.116;5.286;2022-09-27T14:49:57;16.10;99.90
13817;DHT22;6979;52.116;5.286;2022-09-27T14:52:26;16.10;99.90
13817;DHT22;6979;52.116;5.286;2022-09-27T14:54:56;16.10;99.90
13817;DHT22;6979;52.116;5.286;2022-09-27T14:57:24;16.10;99.90
13817;DHT22;6979;52.116;5.286;2022-09-27T14:59:53;16.10;99.90
13817;DHT22;6979;52.116;5.286;2022-09-27T15:02:23;16.10;99.90
13817;DHT22;6979;52.116;5.286;2022-09-27T15:04:53;16.10;99.90
13817;DHT22;6979;52.116;5.286;2022-09-27T15:07:21;16.00;99.90
13817;DHT22;6979;52.116;5.286;2022-09-27T15:09:49;16.00;99.90
13817;DHT22;6979;52.116;5.286;2022-09-27T15:12:22;15.90;99.90
13817;DHT22;6979;52.116;5.286;2022-09-27T15:14:54;15.90;99.90
13817;DHT22;6979;52.116;5.286;2022-09-27T15:17:39;15.90;99.90
13817;DHT22;6979;52.116;5.286;2022-09-27T15:22:55;15.80;99.90
13817;DHT22;6979;52.116;5.286;2022-09-27T15:25:26;15.80;99.90
13817;DHT22;6979;52.116;5.286;2022-09-27T15:28:00;15.80;99.90
13817;DHT22;6979;52.116;5.286;2022-09-27T15:30:36;15.80;99.90
13817;DHT22;6979;52.116;5.286;2022-09-27T15:33:05;15.80;99.90
13817;DHT22;6979;52.116;5.286;2022-09-27T15:35:35;15.80;99.90
13817;DHT22;6979;52.116;5.286;2022-09-27T15:38:24;15.80;99.90
13817;DHT22;6979;52.116;5.286;2022-09-27T15:43:51;15.70;99.90
13817;DHT22;6979;52.116;5.286;2022-09-27T15:46:41;15.80;99.90
13817;DHT22;6979;52.116;5.286;2022-09-27T15:52:49;15.70;99.90
13817;DHT22;6979;52.116;5.286;2022-09-27T15:55:34;15.70;99.90
13817;DHT22;6979;52.116;5.286;2022-09-27T15:58:06;15.60;99.90
13817;DHT22;6979;52.116;5.286;2022-09-27T16:00:36;15.60;99.90
13817;DHT22;6979;52.116;5.286;2022-09-27T16:06:39;15.60;99.90
13817;DHT22;6979;52.116;5.286;2022-09-27T16:09:11;15.50;99.90
13817;DHT22;6979;52.116;5.286;2022-09-27T16:27:56;15.20;99.90
13817;DHT22;6979;52.116;5.286;2022-09-27T16:30:23;15.10;99.90
13817;DHT22;6979;52.116;5.286;2022-09-27T16:32:51;15.10;99.90
13817;DHT22;6979;52.116;5.286;2022-09-27T16:35:21;15.00;99.90
13817;DHT22;6979;52.116;5.286;2022-09-27T16:37:49;15.00;99.90
13817;DHT22;6979;52.116;5.286;2022-09-27T16:40:26;14.90;99.90
13817;DHT22;6979;52.116;5.286;2022-09-27T16:58:10;14.60;99.90
13817;DHT22;6979;52.116;5.286;2022-09-27T17:36:02;14.40;99.90
13817;DHT22;6979;52.116;5.286;2022-09-27T17:38:32;14.40;99.90
13817;DHT22;6979;52.116;5.286;2022-09-27T17:41:00;14.40;99.90
13817;DHT22;6979;52.116;5.286;2022-09-27T18:27:01;13.90;99.90
13817;DHT22;6979;52.116;5.286;2022-09-27T18:29:32;13.80;99.90
13817;DHT22;6979;52.116;5.286;2022-09-27T18:33:03;13.70;99.90
13817;DHT22;6979;52.116;5.286;2022-09-27T20:22:02;13.30;99.90
13817;DHT22;6979;52.116;5.286;2022-09-27T20:24:29;13.30;99.90
13817;DHT22;6979;52.116;5.286;2022-09-27T20:26:58;13.30;99.90
13817;DHT22;6979;52.116;5.286;2022-09-27T20:32:07;13.40;99.90
13817;DHT22;6979;52.116;5.286;2022-09-27T20:34:35;13.40;99.90
13817;DHT22;6979;52.116;5.286;2022-09-27T20:37:03;13.40;99.90
13817;DHT22;6979;52.116;5.286;2022-09-27T20:39:32;13.40;99.90
13817;DHT22;6979;52.116;5.286;2022-09-27T20:42:00;13.40;99.90
13817;DHT22;6979;52.116;5.286;2022-09-27T20:44:41;13.40;99.90
13817;DHT22;6979;52.116;5.286;2022-09-27T20:47:27;13.40;99.90
13817;DHT22;6979;52.116;5.286;2022-09-27T20:49:53;13.30;99.90
13817;DHT22;6979;52.116;5.286;2022-09-27T20:52:22;13.30;99.90
13817;DHT22;6979;52.116;5.286;2022-09-27T20:54:48;13.30;99.90
13817;DHT22;6979;52.116;5.286;2022-09-27T20:57:15;13.30;99.90
13817;DHT22;6979;52.116;5.286;2022-09-27T20:59:44;13.30;99.90
13817;DHT22;6979;52.116;5.286;2022-09-27T21:02:11;13.30;99.90
13817;DHT22;6979;52.116;5.286;2022-09-27T21:04:37;13.20;99.90
13817;DHT22;6979;52.116;5.286;2022-09-27T21:07:05;13.20;99.90
13817;DHT22;6979;52.116;5.286;2022-09-27T21:09:33;13.20;99.90
13817;DHT22;6979;52.116;5.286;2022-09-27T21:12:02;13.10;99.90
13817;DHT22;6979;52.116;5.286;2022-09-27T21:14:29;13.10;99.90
13817;DHT22;6979;52.116;5.286;2022-09-27T21:16:56;13.10;99.90
13817;DHT22;6979;52.116;5.286;2022-09-27T21:19:26;13.10;99.90